createdAt,value
2019-03-13T00:00:07.310Z,21.87
2019-03-13T00:02:40.451Z,24.67
2019-03-13T00:05:11.589Z,27.13
2019-03-13T00:07:42.325Z,31.20
2019-03-13T00:10:13.302Z,33.17
2019-03-13T00:12:44.124Z,36.07
2019-03-13T00:15:16.616Z,28.07
2019-03-13T00:17:47.478Z,25.97
2019-03-13T00:20:18.219Z,24.70
2019-03-13T00:22:49.781Z,32.07
2019-03-13T00:25:20.496Z,23.37
2019-03-13T00:27:51.174Z,24.03
2019-03-13T00:30:21.858Z,33.47
2019-03-13T00:32:52.716Z,22.60
2019-03-13T00:35:53.116Z,24.50
2019-03-13T00:38:27.008Z,27.33
2019-03-13T00:40:58.258Z,23.37
2019-03-13T00:43:28.926Z,25.27
2019-03-13T00:46:05.663Z,25.03
2019-03-13T00:48:36.354Z,21.90
2019-03-13T00:51:07.116Z,22.90
2019-03-13T00:53:37.951Z,28.37
2019-03-13T00:56:08.649Z,25.10
2019-03-13T00:58:39.353Z,26.10
2019-03-13T01:01:31.996Z,24.50
2019-03-13T01:04:19.391Z,21.90
2019-03-13T01:07:02.545Z,22.30
2019-03-13T01:09:33.232Z,31.87
2019-03-13T01:12:04.555Z,31.60
2019-03-13T01:14:35.473Z,27.10
2019-03-13T01:17:07.463Z,27.97
2019-03-13T01:19:38.209Z,26.90
2019-03-13T01:22:08.871Z,22.90
2019-03-13T01:24:40.131Z,29.00
2019-03-13T01:27:11.836Z,25.43
2019-03-13T01:29:43.104Z,30.10
2019-03-13T01:32:35.427Z,30.77
2019-03-13T01:35:15.860Z,29.47
2019-03-13T01:37:46.898Z,36.17
2019-03-13T01:40:17.813Z,30.33
2019-03-13T01:42:48.912Z,28.20
2019-03-13T01:45:20.348Z,20.83
2019-03-13T01:47:51.191Z,28.27
2019-03-13T01:50:21.969Z,28.87
2019-03-13T01:52:52.726Z,27.80
2019-03-13T01:55:23.471Z,29.70
2019-03-13T01:57:54.163Z,35.93
2019-03-13T02:00:24.871Z,28.27
2019-03-13T02:02:55.531Z,29.37
2019-03-13T02:05:26.562Z,26.77
2019-03-13T02:07:58.156Z,36.20
2019-03-13T02:10:34.250Z,43.40
2019-03-13T02:13:05.323Z,39.00
2019-03-13T02:15:36.046Z,35.67
2019-03-13T02:18:07.266Z,27.03
2019-03-13T02:20:39.706Z,31.00
2019-03-13T02:23:10.375Z,33.00
2019-03-13T02:26:24.871Z,30.53
2019-03-13T02:28:58.642Z,34.17
2019-03-13T02:31:37.058Z,41.27
2019-03-13T02:34:07.778Z,40.60
2019-03-13T02:36:38.517Z,39.90
2019-03-13T02:39:09.168Z,46.23
2019-03-13T02:41:40.317Z,42.70
2019-03-13T02:44:11.043Z,36.43
2019-03-13T02:46:41.904Z,40.20
2019-03-13T02:49:12.608Z,48.53
2019-03-13T02:51:44.780Z,40.53
2019-03-13T02:54:15.543Z,43.87
2019-03-13T02:56:46.380Z,39.57
2019-03-13T02:59:17.099Z,39.60
2019-03-13T03:02:12.459Z,34.33
2019-03-13T03:04:43.234Z,37.93
2019-03-13T03:07:13.938Z,42.77
2019-03-13T03:09:44.605Z,39.97
2019-03-13T03:12:20.345Z,41.33
2019-03-13T03:15:01.623Z,37.50
2019-03-13T03:17:33.588Z,33.27
2019-03-13T03:20:04.728Z,35.93
2019-03-13T03:22:35.393Z,37.43
2019-03-13T03:25:06.490Z,41.63
2019-03-13T03:27:37.268Z,33.23
2019-03-13T03:30:09.270Z,41.33
2019-03-13T03:32:39.974Z,38.07
2019-03-13T03:35:11.649Z,41.33
2019-03-13T03:37:42.346Z,31.33
2019-03-13T03:40:15.126Z,35.67
2019-03-13T03:42:50.111Z,32.40
2019-03-13T03:45:21.164Z,32.67
2019-03-13T03:47:51.839Z,37.07
2019-03-13T03:50:22.532Z,36.13
2019-03-13T03:52:53.265Z,43.90
2019-03-13T03:55:32.512Z,33.43
2019-03-13T03:58:06.697Z,38.90
2019-03-13T04:00:37.300Z,34.83
2019-03-13T04:03:07.990Z,45.13
2019-03-13T04:05:38.700Z,34.30
2019-03-13T04:08:09.397Z,40.80
2019-03-13T04:10:39.997Z,35.07
2019-03-13T04:13:10.674Z,40.07
2019-03-13T04:15:41.295Z,37.70
2019-03-13T04:18:11.940Z,36.20
2019-03-13T04:20:42.603Z,35.47
2019-03-13T04:23:13.311Z,43.83
2019-03-13T04:25:44.076Z,41.20
2019-03-13T04:28:14.845Z,39.63
2019-03-13T04:30:45.555Z,30.97
2019-03-13T04:33:16.326Z,32.20
2019-03-13T04:35:47.006Z,31.67
2019-03-13T04:38:17.726Z,34.17
2019-03-13T04:40:48.340Z,40.73
2019-03-13T04:43:19.025Z,34.30
2019-03-13T04:45:49.678Z,43.97
2019-03-13T04:48:20.308Z,30.03
2019-03-13T04:50:50.956Z,36.73
2019-03-13T04:53:21.590Z,44.97
2019-03-13T04:55:52.819Z,35.83
2019-03-13T04:58:23.569Z,41.77
2019-03-13T05:00:54.264Z,38.37
2019-03-13T05:03:24.960Z,46.40
2019-03-13T05:05:58.693Z,36.00
2019-03-13T05:08:57.020Z,33.97
2019-03-13T05:11:27.659Z,31.00
2019-03-13T05:13:58.697Z,33.30
2019-03-13T05:16:29.334Z,42.80
2019-03-13T05:19:06.914Z,51.57
2019-03-13T05:21:37.562Z,34.43
2019-03-13T05:24:08.217Z,35.90
2019-03-13T05:26:38.861Z,41.67
2019-03-13T05:29:09.542Z,34.33
2019-03-13T05:31:40.173Z,38.60
2019-03-13T05:34:10.812Z,33.87
2019-03-13T05:36:41.487Z,33.23
2019-03-13T05:39:12.184Z,33.10
2019-03-13T05:41:42.871Z,37.03
2019-03-13T05:44:13.615Z,38.60
2019-03-13T05:46:44.283Z,39.03
2019-03-13T05:49:14.991Z,40.23
2019-03-13T05:51:45.619Z,29.60
2019-03-13T05:54:16.297Z,40.90
2019-03-13T05:56:46.905Z,47.90
2019-03-13T05:59:17.643Z,35.27
2019-03-13T06:01:48.284Z,49.90
2019-03-13T06:04:19.003Z,45.73
2019-03-13T06:06:49.679Z,32.53
2019-03-13T06:09:20.349Z,43.30
2019-03-13T06:11:50.984Z,28.70
2019-03-13T06:14:21.733Z,28.00
2019-03-13T06:16:52.386Z,37.23
2019-03-13T06:19:23.066Z,36.87
2019-03-13T06:21:55.061Z,37.40
2019-03-13T06:24:26.175Z,34.73
2019-03-13T06:26:56.939Z,31.77
2019-03-13T06:29:27.738Z,34.77
2019-03-13T06:31:58.983Z,33.83
2019-03-13T06:34:29.713Z,37.07
2019-03-13T06:37:00.384Z,30.83
2019-03-13T06:39:32.163Z,40.37
2019-03-13T06:42:03.499Z,45.70
2019-03-13T06:44:37.797Z,25.80
2019-03-13T06:47:08.574Z,33.70
2019-03-13T06:49:39.332Z,32.20
2019-03-13T06:52:10.149Z,37.90
2019-03-13T06:54:41.197Z,28.53
2019-03-13T06:57:11.815Z,35.97
2019-03-13T07:03:56.542Z,32.70
2019-03-13T07:06:58.063Z,31.67
2019-03-13T07:09:40.652Z,40.10
2019-03-13T07:12:39.057Z,34.53
2019-03-13T07:15:27.374Z,44.97
2019-03-13T07:18:17.873Z,39.20
2019-03-13T07:21:13.486Z,50.13
2019-03-13T07:24:09.223Z,37.70
2019-03-13T07:26:44.937Z,31.67
2019-03-13T07:29:30.738Z,27.40
2019-03-13T07:32:30.746Z,30.57
2019-03-13T07:35:29.249Z,44.93
2019-03-13T07:38:20.102Z,34.33
2019-03-13T07:41:24.870Z,31.97
2019-03-13T07:44:46.540Z,30.43
2019-03-13T07:47:42.640Z,34.00
2019-03-13T07:50:38.152Z,33.63
2019-03-13T07:53:42.103Z,28.17
2019-03-13T07:56:36.417Z,33.00
2019-03-13T07:59:14.493Z,45.87
2019-03-13T08:02:04.123Z,32.53
2019-03-13T08:07:56.087Z,32.17
2019-03-13T08:10:45.112Z,44.50
2019-03-13T08:13:35.815Z,28.40
2019-03-13T08:16:40.304Z,30.67
2019-03-13T08:19:44.737Z,28.20
2019-03-13T08:22:30.932Z,36.77
2019-03-13T08:25:26.839Z,29.70
2019-03-13T08:28:28.477Z,36.40
2019-03-13T08:31:21.805Z,31.43
2019-03-13T08:34:14.242Z,27.47
2019-03-13T08:36:59.217Z,29.03
2019-03-13T08:39:55.097Z,26.77
2019-03-13T08:42:40.557Z,26.13
2019-03-13T08:45:40.330Z,26.60
2019-03-13T08:48:40.194Z,25.20
2019-03-13T08:51:28.133Z,26.60
2019-03-13T08:54:21.354Z,30.83
2019-03-13T08:57:20.417Z,18.80
2019-03-13T09:00:08.414Z,18.33
2019-03-13T09:02:56.961Z,13.50
2019-03-13T09:05:58.925Z,22.00
2019-03-13T09:09:04.044Z,13.80
2019-03-13T09:12:09.972Z,16.27
2019-03-13T09:14:59.503Z,26.40
2019-03-13T09:17:41.126Z,22.10
2019-03-13T09:20:40.949Z,19.83
2019-03-13T09:23:48.826Z,18.10
2019-03-13T09:26:37.047Z,15.53
2019-03-13T09:29:23.565Z,13.03
2019-03-13T09:32:18.885Z,27.60
2019-03-13T09:35:17.899Z,9.93
2019-03-13T09:38:05.059Z,9.07
2019-03-13T09:41:01.153Z,13.43
2019-03-13T09:44:00.150Z,8.00
2019-03-13T09:46:52.919Z,4.67
2019-03-13T09:49:33.508Z,12.60
2019-03-13T09:52:22.586Z,8.83
2019-03-13T09:55:12.712Z,9.70
2019-03-13T09:58:09.489Z,7.47
2019-03-13T10:01:02.573Z,4.93
2019-03-13T10:03:58.459Z,5.03
2019-03-13T10:06:50.835Z,9.10
2019-03-13T10:09:29.325Z,5.77
2019-03-13T10:12:12.272Z,6.30
2019-03-13T10:14:54.030Z,8.37
2019-03-13T10:17:52.763Z,8.23
2019-03-13T10:20:41.123Z,6.33
2019-03-13T10:23:36.759Z,7.63
2019-03-13T10:26:24.894Z,6.30
2019-03-13T10:29:04.299Z,13.70
2019-03-13T10:31:49.748Z,7.23
2019-03-13T10:34:48.517Z,5.27
2019-03-13T10:37:29.551Z,11.90
2019-03-13T10:40:11.166Z,5.73
2019-03-13T10:42:48.987Z,7.57
2019-03-13T10:45:34.892Z,6.70
2019-03-13T10:48:20.088Z,5.43
2019-03-13T10:51:08.146Z,5.47
2019-03-13T10:54:00.876Z,9.93
2019-03-13T10:56:39.375Z,2.20
2019-03-13T10:59:38.087Z,8.63
2019-03-13T11:02:15.704Z,4.83
2019-03-13T11:05:07.985Z,10.33
2019-03-13T11:07:55.645Z,8.33
2019-03-13T11:10:45.290Z,4.47
2019-03-13T11:13:33.430Z,5.67
2019-03-13T11:16:35.703Z,10.57
2019-03-13T11:19:24.120Z,7.23
2019-03-13T11:22:11.545Z,8.73
2019-03-13T11:25:01.153Z,12.20
2019-03-13T11:27:53.764Z,5.93
2019-03-13T11:30:38.353Z,4.50
2019-03-13T11:33:37.802Z,8.10
2019-03-13T11:36:30.313Z,8.57
2019-03-13T11:39:26.546Z,5.37
2019-03-13T11:42:25.338Z,8.83
2019-03-13T11:45:23.847Z,6.53
2019-03-13T11:48:05.668Z,5.83
2019-03-13T11:51:07.309Z,11.20
2019-03-13T11:54:03.207Z,14.10
2019-03-13T11:56:51.433Z,11.60
2019-03-13T11:59:35.407Z,14.57
2019-03-13T12:02:24.560Z,12.80
2019-03-13T12:05:19.971Z,12.50
2019-03-13T12:08:09.542Z,5.13
2019-03-13T12:11:01.903Z,10.83
2019-03-13T12:13:50.049Z,9.23
2019-03-13T12:16:42.807Z,12.60
2019-03-13T12:19:32.561Z,11.53
2019-03-13T12:22:20.863Z,12.63
2019-03-13T12:25:10.399Z,8.40
2019-03-13T12:28:15.052Z,14.83
2019-03-13T12:34:26.982Z,4.97
2019-03-13T12:41:24.215Z,23.33
2019-03-13T12:44:26.491Z,11.93
2019-03-13T12:47:13.720Z,9.77
2019-03-13T12:49:54.435Z,14.77
2019-03-13T12:52:50.195Z,22.67
2019-03-13T12:55:56.169Z,18.30
2019-03-13T12:58:52.204Z,18.07
2019-03-13T13:01:31.634Z,8.40
2019-03-13T13:04:39.199Z,9.80
2019-03-13T13:07:20.387Z,27.03
2019-03-13T13:10:18.948Z,8.57
2019-03-13T13:13:11.347Z,10.87
2019-03-13T13:16:07.904Z,5.53
2019-03-13T13:18:54.170Z,9.20
2019-03-13T13:21:25.377Z,6.87
2019-03-13T13:23:56.204Z,16.53
2019-03-13T13:26:28.283Z,14.80
2019-03-13T13:28:59.221Z,15.80
2019-03-13T13:31:29.956Z,9.27
2019-03-13T13:34:00.738Z,11.63
2019-03-13T13:36:31.462Z,11.97
2019-03-13T13:39:02.130Z,9.90
2019-03-13T13:41:34.458Z,10.60
2019-03-13T13:44:16.955Z,16.37
2019-03-13T13:46:48.405Z,9.47
2019-03-13T13:49:19.359Z,12.43
2019-03-13T13:51:50.109Z,11.70
2019-03-13T13:54:20.915Z,7.97
2019-03-13T13:56:51.764Z,8.60
2019-03-13T13:59:22.593Z,13.00
2019-03-13T14:01:53.451Z,14.70
2019-03-13T14:04:24.232Z,8.63
2019-03-13T14:06:55.101Z,15.53
2019-03-13T14:09:25.962Z,8.13
2019-03-13T14:11:56.633Z,9.50
2019-03-13T14:14:27.368Z,5.53
2019-03-13T14:16:58.098Z,13.27
2019-03-13T14:19:28.873Z,8.90
2019-03-13T14:22:00.558Z,10.87
2019-03-13T14:24:31.544Z,12.60
2019-03-13T14:27:13.813Z,16.90
2019-03-13T14:29:35.413Z,10.90
2019-03-13T14:32:06.383Z,15.17
2019-03-13T14:34:37.013Z,9.83
2019-03-13T14:37:07.752Z,13.47
2019-03-13T14:39:38.524Z,12.10
2019-03-13T14:42:09.197Z,7.27
2019-03-13T14:44:39.840Z,9.87
2019-03-13T14:47:10.949Z,19.20
2019-03-13T14:49:42.414Z,8.43
2019-03-13T14:52:13.038Z,5.03
2019-03-13T14:54:43.803Z,12.17
2019-03-13T14:57:14.491Z,16.50
2019-03-13T14:59:45.203Z,10.47
2019-03-13T15:02:16.037Z,9.50
2019-03-13T15:04:46.917Z,6.90
2019-03-13T15:07:17.654Z,12.23
2019-03-13T15:09:48.323Z,14.60
2019-03-13T15:12:19.218Z,10.03
2019-03-13T15:14:49.994Z,5.67
2019-03-13T15:17:20.626Z,13.47
2019-03-13T15:19:51.533Z,12.20
2019-03-13T15:22:22.378Z,5.90
2019-03-13T15:24:53.567Z,7.73
2019-03-13T15:27:24.313Z,9.30
2019-03-13T15:30:00.393Z,11.00
2019-03-13T15:32:34.583Z,13.87
2019-03-13T15:35:05.692Z,7.80
2019-03-13T15:37:51.579Z,22.80
2019-03-13T15:40:22.441Z,17.27
2019-03-13T15:42:53.794Z,8.70
2019-03-13T15:45:24.900Z,20.17
2019-03-13T15:47:55.890Z,12.30
2019-03-13T15:50:26.942Z,11.63
2019-03-13T15:52:57.619Z,8.57
2019-03-13T15:55:28.502Z,7.07
2019-03-13T15:57:59.388Z,21.97
2019-03-13T16:00:30.119Z,19.63
2019-03-13T16:03:01.054Z,15.17
2019-03-13T16:05:31.787Z,14.40
2019-03-13T16:08:02.773Z,13.83
2019-03-13T16:10:33.712Z,9.13
2019-03-13T16:13:16.587Z,15.33
2019-03-13T16:15:48.692Z,13.30
2019-03-13T16:18:19.425Z,14.60
2019-03-13T16:20:50.172Z,12.63
2019-03-13T16:23:21.120Z,9.17
2019-03-13T16:25:52.112Z,6.70
2019-03-13T16:28:23.061Z,15.03
2019-03-13T16:30:54.483Z,17.03
2019-03-13T16:33:25.313Z,12.77
2019-03-13T16:35:56.412Z,9.10
2019-03-13T16:38:27.388Z,13.90
2019-03-13T16:40:58.395Z,11.10
2019-03-13T16:43:29.033Z,12.60
2019-03-13T16:45:59.825Z,11.07
2019-03-13T16:48:30.524Z,15.43
2019-03-13T16:51:01.418Z,8.43
2019-03-13T16:53:32.891Z,5.83
2019-03-13T16:56:04.162Z,11.70
2019-03-13T16:58:34.905Z,8.23
2019-03-13T17:01:06.067Z,4.60
2019-03-13T17:03:36.798Z,13.23
2019-03-13T17:06:07.805Z,7.77
2019-03-13T17:08:39.580Z,10.97
2019-03-13T17:11:10.480Z,13.53
2019-03-13T17:13:41.129Z,6.97
2019-03-13T17:16:12.103Z,11.73
2019-03-13T17:18:42.731Z,15.47
2019-03-13T17:21:13.912Z,14.80
2019-03-13T17:23:44.849Z,11.33
2019-03-13T17:26:15.682Z,10.43
2019-03-13T17:28:46.550Z,11.67
2019-03-13T17:31:17.565Z,13.17
2019-03-13T17:33:48.348Z,16.70
2019-03-13T17:36:20.355Z,11.23
2019-03-13T17:38:50.994Z,18.33
2019-03-13T17:41:21.909Z,16.20
2019-03-13T17:43:52.648Z,8.13
2019-03-13T17:46:23.552Z,13.43
2019-03-13T17:48:54.270Z,8.00
2019-03-13T17:51:25.485Z,13.40
2019-03-13T17:53:56.439Z,8.73
2019-03-13T17:56:27.450Z,12.43
2019-03-13T17:58:58.395Z,19.97
2019-03-13T18:01:30.351Z,9.63
2019-03-13T18:04:01.761Z,17.73
2019-03-13T18:06:33.831Z,21.63
2019-03-13T18:09:06.806Z,13.10
2019-03-13T18:11:43.020Z,11.70
2019-03-13T18:14:14.335Z,18.80
2019-03-13T18:16:45.564Z,15.53
2019-03-13T18:19:16.654Z,19.87
2019-03-13T18:21:47.897Z,12.17
2019-03-13T18:24:18.776Z,6.93
2019-03-13T18:26:50.941Z,14.27
2019-03-13T18:29:21.952Z,11.00
2019-03-13T18:31:52.755Z,11.90
2019-03-13T18:34:40.561Z,13.53
2019-03-13T18:37:12.872Z,21.07
2019-03-13T18:39:58.963Z,11.67
2019-03-13T18:42:30.866Z,12.53
2019-03-13T18:45:02.565Z,14.63
2019-03-13T18:47:34.393Z,22.93
2019-03-13T18:50:05.715Z,11.70
2019-03-13T18:52:36.491Z,14.40
2019-03-13T18:55:08.465Z,18.53
2019-03-13T18:57:39.322Z,10.50
2019-03-13T19:00:14.313Z,13.70
2019-03-13T19:02:45.454Z,15.07
2019-03-13T19:05:16.453Z,15.93
2019-03-13T19:07:47.342Z,12.73
2019-03-13T19:10:21.117Z,11.30
2019-03-13T19:12:54.808Z,14.10
2019-03-13T19:15:50.919Z,14.23
2019-03-13T19:18:24.896Z,17.70
2019-03-13T19:20:58.601Z,15.03
2019-03-13T19:23:30.741Z,14.50
2019-03-13T19:26:24.311Z,12.40
2019-03-13T19:29:01.244Z,11.50
2019-03-13T19:32:18.196Z,11.53
2019-03-13T19:34:49.417Z,21.93
2019-03-13T19:37:20.145Z,14.77
2019-03-13T19:39:50.990Z,15.47
2019-03-13T19:42:25.071Z,21.57
2019-03-13T19:44:58.730Z,29.17
2019-03-13T19:47:29.532Z,23.20
2019-03-13T19:50:00.377Z,13.50
2019-03-13T19:52:31.261Z,14.93
2019-03-13T19:55:02.092Z,16.10
2019-03-13T19:57:32.976Z,17.83
2019-03-13T20:00:03.964Z,14.23
2019-03-13T20:02:35.079Z,15.20
2019-03-13T20:05:06.394Z,12.87
2019-03-13T20:07:37.184Z,15.20
2019-03-13T20:10:10.677Z,14.90
2019-03-13T20:13:07.891Z,12.37
2019-03-13T20:16:29.940Z,13.53
2019-03-13T20:19:00.713Z,19.13
2019-03-13T20:21:32.497Z,17.40
2019-03-13T20:24:03.356Z,16.97
2019-03-13T20:26:35.588Z,19.13
2019-03-13T20:29:09.709Z,13.53
2019-03-13T20:31:44.668Z,19.87
2019-03-13T20:34:16.309Z,19.30
2019-03-13T20:36:47.291Z,14.90
2019-03-13T20:39:18.058Z,10.10
2019-03-13T20:41:49.182Z,15.13
2019-03-13T20:44:24.266Z,14.80
2019-03-13T20:46:55.494Z,12.00
2019-03-13T20:49:28.240Z,14.00
2019-03-13T20:52:00.301Z,20.37
2019-03-13T20:54:33.426Z,10.17
2019-03-13T20:57:04.508Z,15.40
2019-03-13T20:59:35.220Z,23.13
2019-03-13T21:02:06.245Z,18.73
2019-03-13T21:04:37.004Z,15.50
2019-03-13T21:07:24.072Z,15.70
2019-03-13T21:09:56.017Z,15.27
2019-03-13T21:12:27.094Z,18.40
2019-03-13T21:14:58.827Z,23.77
2019-03-13T21:17:30.180Z,17.33
2019-03-13T21:20:01.320Z,17.83
2019-03-13T21:22:32.242Z,15.67
2019-03-13T21:25:14.242Z,28.73
2019-03-13T21:27:57.636Z,12.50
2019-03-13T21:30:52.415Z,15.57
2019-03-13T21:33:30.749Z,17.60
2019-03-13T21:36:03.081Z,11.90
2019-03-13T21:38:36.759Z,10.97
2019-03-13T21:41:14.506Z,18.97
2019-03-13T21:43:45.568Z,15.13
2019-03-13T21:46:21.343Z,17.80
2019-03-13T21:49:03.979Z,25.17
2019-03-13T21:51:46.764Z,15.33
2019-03-13T21:54:19.046Z,11.67
2019-03-13T21:56:49.754Z,17.20
2019-03-13T21:59:26.417Z,17.40
2019-03-13T22:01:57.131Z,19.27
2019-03-13T22:04:28.285Z,22.00
2019-03-13T22:07:02.592Z,14.47
2019-03-13T22:09:33.586Z,15.20
2019-03-13T22:12:06.231Z,21.20
2019-03-13T22:14:38.575Z,16.20
2019-03-13T22:17:09.770Z,18.33
2019-03-13T22:19:40.772Z,18.53
2019-03-13T22:22:11.568Z,15.63
2019-03-13T22:24:42.541Z,21.60
2019-03-13T22:27:14.796Z,19.53
2019-03-13T22:29:46.312Z,13.30
2019-03-13T22:32:21.469Z,18.57
2019-03-13T22:34:52.710Z,12.80
2019-03-13T22:37:23.479Z,10.37
2019-03-13T22:39:54.468Z,17.83
2019-03-13T22:42:25.263Z,11.20
2019-03-13T22:44:56.241Z,13.60
2019-03-13T22:47:27.251Z,16.03
2019-03-13T22:49:58.108Z,11.27
2019-03-13T22:52:28.798Z,13.20
2019-03-13T22:55:13.767Z,14.20
2019-03-13T22:57:45.419Z,13.87
2019-03-13T23:00:47.083Z,14.23
2019-03-13T23:03:26.099Z,12.17
2019-03-13T23:05:57.436Z,26.77
2019-03-13T23:08:30.873Z,14.87
2019-03-13T23:11:00.680Z,12.70
2019-03-13T23:13:31.427Z,15.50
2019-03-13T23:16:04.567Z,12.63
2019-03-13T23:18:35.214Z,13.43
2019-03-13T23:21:06.071Z,20.23
2019-03-13T23:23:36.743Z,20.83
2019-03-13T23:26:08.431Z,16.10
2019-03-13T23:28:39.246Z,16.03
2019-03-13T23:31:11.166Z,16.67
2019-03-13T23:33:42.873Z,12.93
2019-03-13T23:36:13.603Z,18.63
2019-03-13T23:38:44.255Z,15.00
2019-03-13T23:41:14.973Z,22.07
2019-03-13T23:43:45.723Z,27.23
2019-03-13T23:46:16.430Z,24.67
2019-03-13T23:48:47.079Z,21.63
2019-03-13T23:51:17.923Z,25.07
2019-03-13T23:53:48.608Z,16.83
2019-03-13T23:56:19.368Z,12.63
2019-03-13T23:59:10.487Z,11.70
